Terminal Aerodrome Forecast
Issued by NWS Raleigh/Durham, NC

Home | Current Version | Previous Version | Text Only | Print | Product List | Glossary On
Versions: 1 2 3 4 5 6 7 8 9 10 11 12 13 14 15 16 17 18 19 20 21 22 23 24 25 26 27 28 29 30 31 32 33 34 35 36 37 38 39 40 41 42 43 44 45 46 47 48 49 50
000
FTUS42 KRAH 032018 AAB
TAFGSO
TAF AMD
KGSO 032018Z 0320/0418 17006KT P6SM VCSH BKN009 OVC020
      TEMPO 0321/0324 2SM SHRA BR BKN004
     FM040100 23008KT P6SM SCT020 BKN250
     FM041000 24005KT 5SM BR BKN005
     FM041400 22010G18KT P6SM BKN035=

USA.gov is the U.S. government's official web portal to all federal, state and local government web resources and services.